Hillman, Mississippi
Current Conditions -  °F | °C
As of 8:00 AM on Monday 22 Dec 2014 (Local Time) from KMOB Reporting Station
Haze Haze  
Wind Chill: 56°   Ceiling: 200
Heat Index: 56°   Visibility: 1mi
Dew Point: 56°   Wind: 9mph
Humidity: 100%   Direction: 110°ESE
Pressure: 29.89"   Gusts: NA
Location:  31.1153°N, 88.5168°W
Report Text: KMOB 221400Z 11008KT 1SM BR OVC002 13/13 A2989 RMK AO2 T01330133
Loading
Personal Weather Stations






























Interactive Weather Map New forecast layout! Learn more

10-Day Weather Forecast

Advertisements
Track Severe Weather on mobile